Time;durP1;ratioP1;P1;durP2;ratioP2;P2;SDS_P1;SDS_P2;PMS_P1;PMS_P2;Temp;Humidity;BMP_temperature;BMP_pressure;BME280_temperature;BME280_humidity;BME280_pressure;Samples;Min_cycle;Max_cycle;Signal;HPM_P1;HPM_P2
2023/03/06 00:00:28;;;;;;;6.57;5.90;;;5.90;99.90;;;;;;4983148;28;20456;-82
2023/03/06 00:03:00;;;;;;;6.20;4.97;;;5.90;99.90;;;;;;4988245;28;20483;-81
2023/03/06 00:05:27;;;;;;;5.73;5.00;;;5.90;99.90;;;;;;4969758;28;20527;-81
2023/03/06 00:07:58;;;;;;;5.30;4.80;;;5.90;99.90;;;;;;4986303;28;20460;-81
2023/03/06 00:10:30;;;;;;;6.50;5.80;;;5.90;99.90;;;;;;4988604;28;20494;-81
2023/03/06 00:13:01;;;;;;;5.93;5.33;;;5.90;99.90;;;;;;4964010;28;20461;-81
2023/03/06 00:15:28;;;;;;;6.00;5.40;;;5.90;99.90;;;;;;4988012;28;20484;-81
2023/03/06 00:18:05;;;;;;;8.13;6.73;;;5.90;99.90;;;;;;4986606;28;20459;-80
2023/03/06 00:20:38;;;;;;;6.10;5.50;;;6.00;99.90;;;;;;4986473;28;20455;-82
2023/03/06 00:26:19;;;;;;;7.63;5.87;;;6.00;99.90;;;;;;4985965;28;21148;-82
2023/03/06 00:28:48;;;;;;;6.97;5.27;;;5.90;99.90;;;;;;4969478;28;20455;-81
2023/03/06 00:31:56;;;;;;;7.53;5.53;;;5.90;99.90;;;;;;4971211;28;20452;-80
2023/03/06 00:34:33;;;;;;;5.57;4.97;;;5.80;99.90;;;;;;4994914;28;20571;-80
2023/03/06 00:37:29;;;;;;;5.70;5.03;;;5.80;99.90;;;;;;4958917;29;20480;-82
2023/03/06 00:40:14;;;;;;;7.10;5.40;;;5.80;99.90;;;;;;4974138;28;20456;-82
2023/03/06 00:43:16;;;;;;;6.40;5.47;;;5.80;99.90;;;;;;4975347;28;20464;-81
2023/03/06 00:45:55;;;;;;;9.07;6.03;;;5.80;99.90;;;;;;4977834;28;20543;-82
2023/03/06 00:48:36;;;;;;;6.23;5.60;;;5.80;99.90;;;;;;4979314;28;20452;-82
2023/03/06 00:51:20;;;;;;;9.87;6.33;;;5.80;99.90;;;;;;4970523;28;20471;-83
2023/03/06 00:54:01;;;;;;;8.37;6.10;;;5.80;99.90;;;;;;4994015;28;20486;-81
2023/03/06 00:56:35;;;;;;;8.63;6.50;;;5.80;99.90;;;;;;4967157;28;20460;-80
2023/03/06 00:59:18;;;;;;;6.57;5.90;;;5.80;99.90;;;;;;4962318;28;20459;-81
2023/03/06 01:01:59;;;;;;;7.43;5.83;;;5.80;99.90;;;;;;4964500;28;20460;-81
2023/03/06 01:04:58;;;;;;;6.37;5.40;;;5.80;99.90;;;;;;4968188;28;20460;-80
2023/03/06 01:08:13;;;;;;;8.40;6.87;;;6.00;99.90;;;;;;4974618;28;20503;-79
2023/03/06 01:11:33;;;;;;;10.03;6.20;;;6.10;99.90;;;;;;4985031;28;20464;-79
2023/03/06 01:14:36;;;;;;;7.20;6.33;;;5.90;99.90;;;;;;4980631;28;20452;-83
2023/03/06 01:17:42;;;;;;;6.13;5.50;;;5.90;99.90;;;;;;4967787;28;20511;-81
2023/03/06 01:20:30;;;;;;;10.57;6.50;;;5.90;99.90;;;;;;4986533;28;20439;-80
2023/03/06 01:23:33;;;;;;;8.80;7.10;;;5.90;99.90;;;;;;4968765;28;20446;-82
2023/03/06 01:26:16;;;;;;;14.63;7.90;;;5.80;99.90;;;;;;4978991;28;20455;-81
2023/03/06 01:29:16;;;;;;;10.13;7.70;;;5.80;99.90;;;;;;4991206;28;20446;-82
2023/03/06 01:32:25;;;;;;;10.30;8.00;;;5.80;99.90;;;;;;4982432;28;20539;-82
2023/03/06 01:35:14;;;;;;;10.33;7.83;;;5.80;99.90;;;;;;4990512;28;20463;-81
2023/03/06 01:38:26;;;;;;;13.27;7.20;;;5.80;99.90;;;;;;4965963;28;20491;-81
2023/03/06 01:41:39;;;;;;;9.60;7.27;;;5.80;99.90;;;;;;4958739;28;20473;-82
2023/03/06 01:44:20;;;;;;;11.13;7.73;;;5.80;99.90;;;;;;4956250;28;20824;-82
2023/03/06 01:47:11;;;;;;;12.97;9.40;;;5.90;99.90;;;;;;4986106;28;20498;-81
2023/03/06 01:50:04;;;;;;;;;;;;;;;;;;;;;
2023/03/06 01:53:14;;;;;;;11.33;8.10;;;6.20;99.90;;;;;;4975711;28;20448;-82
2023/03/06 01:59:25;;;;;;;15.00;8.97;;;6.00;99.90;;;;;;4980434;28;20463;-80
2023/03/06 02:02:19;;;;;;;10.60;9.07;;;5.90;99.90;;;;;;4962499;28;20503;-81
2023/03/06 02:05:27;;;;;;;14.27;10.00;;;5.90;99.90;;;;;;4956603;28;20504;-81
2023/03/06 02:11:58;;;;;;;12.10;9.10;;;5.70;99.90;;;;;;4978127;28;20508;-82
2023/03/06 02:14:39;;;;;;;12.17;9.27;;;5.60;99.90;;;;;;4968077;28;20573;-82
2023/03/06 02:20:48;;;;;;;;;;;;;;;;;;;;;
2023/03/06 02:23:32;;;;;;;14.00;10.73;;;5.60;99.90;;;;;;4980399;28;20519;-82
2023/03/06 02:26:45;;;;;;;15.43;10.80;;;5.60;99.90;;;;;;4966928;28;20467;-81
2023/03/06 02:29:52;;;;;;;15.40;11.03;;;5.60;99.90;;;;;;4964052;28;20506;-82
2023/03/06 02:32:36;;;;;;;15.30;11.80;;;5.70;99.90;;;;;;4959372;28;20524;-82
2023/03/06 02:35:50;;;;;;;16.87;13.23;;;5.60;99.90;;;;;;4904860;29;20484;-81
2023/03/06 02:38:44;;;;;;;17.10;11.83;;;5.60;99.90;;;;;;4880940;29;20487;-82
2023/03/06 02:41:26;;;;;;;14.17;11.53;;;5.60;99.90;;;;;;4883104;29;20488;-82
2023/03/06 02:44:31;;;;;;;15.73;12.47;;;5.50;99.90;;;;;;4882986;29;20483;-82
2023/03/06 02:50:51;;;;;;;16.87;13.50;;;5.50;99.90;;;;;;4888748;29;20475;-82
2023/03/06 02:53:31;;;;;;;17.90;13.07;;;5.50;99.90;;;;;;4885913;29;20563;-82
2023/03/06 02:56:32;;;;;;;18.80;12.30;;;5.50;99.90;;;;;;4899827;29;20488;-82
2023/03/06 02:59:36;;;;;;;18.80;12.60;;;5.50;99.90;;;;;;4922789;28;20456;-81
2023/03/06 03:02:26;;;;;;;15.80;11.97;;;5.40;99.90;;;;;;4944826;29;20481;-83
2023/03/06 03:05:10;;;;;;;19.17;11.93;;;5.50;99.90;;;;;;4948304;28;20482;-81
2023/03/06 03:11:38;;;;;;;15.47;12.00;;;5.50;99.90;;;;;;4965001;28;20462;-82
2023/03/06 03:14:42;;;;;;;20.53;13.07;;;5.50;99.90;;;;;;4956613;29;20524;-80
2023/03/06 03:17:46;;;;;;;16.70;12.50;;;5.50;99.90;;;;;;4956642;28;20476;-80
2023/03/06 03:20:46;;;;;;;19.90;13.67;;;5.50;99.90;;;;;;4943005;29;20521;-80
2023/03/06 03:23:30;;;;;;;16.87;12.97;;;5.50;99.90;;;;;;4900486;29;20455;-82
2023/03/06 03:26:20;;;;;;;16.73;12.97;;;5.50;99.90;;;;;;4866751;29;20484;-81
2023/03/06 03:29:17;;;;;;;17.77;13.17;;;5.50;99.90;;;;;;4885094;29;20547;-81
2023/03/06 03:32:32;;;;;;;17.77;12.70;;;5.60;99.90;;;;;;4884813;29;20480;-80
2023/03/06 03:35:16;;;;;;;19.03;12.60;;;5.60;99.90;;;;;;4850627;29;20633;-82
2023/03/06 03:38:18;;;;;;;17.10;13.63;;;5.60;99.90;;;;;;4893069;29;20571;-82
2023/03/06 03:46:10;;;;;;;20.50;13.80;;;5.50;99.90;;;;;;4901433;29;20460;-81
2023/03/06 03:48:51;;;;;;;19.20;13.90;;;5.60;99.90;;;;;;4907983;29;20459;-82
2023/03/06 03:51:59;;;;;;;18.10;13.13;;;5.60;99.90;;;;;;4910843;29;20463;-81
2023/03/06 03:54:44;;;;;;;19.37;14.33;;;5.60;99.90;;;;;;4900390;29;20455;-80
2023/03/06 03:57:29;;;;;;;18.03;13.70;;;5.60;99.90;;;;;;4916756;29;20474;-80
2023/03/06 04:00:07;;;;;;;21.90;13.80;;;5.60;99.90;;;;;;4905405;29;20688;-81
2023/03/06 04:02:56;;;;;;;20.10;13.67;;;5.60;99.90;;;;;;4936293;28;20444;-82
2023/03/06 04:05:52;;;;;;;;;;;;;;;;;;;;;
2023/03/06 04:11:35;;;;;;;18.53;13.63;;;5.50;99.90;;;;;;4978654;28;20554;-80
2023/03/06 04:14:59;;;;;;;19.10;14.20;;;5.50;99.90;;;;;;4973268;28;20470;-81
2023/03/06 04:17:38;;;;;;;20.77;13.80;;;5.50;99.90;;;;;;4956585;28;20511;-80
2023/03/06 04:20:15;;;;;;;20.73;14.80;;;5.50;99.90;;;;;;4987069;28;20463;-81
2023/03/06 04:22:52;;;;;;;19.37;13.17;;;5.50;99.90;;;;;;4947663;28;20510;-81
2023/03/06 04:25:48;;;;;;;25.17;14.70;;;5.60;99.90;;;;;;4966121;28;20975;-80
2023/03/06 04:28:47;;;;;;;19.13;13.70;;;5.60;99.90;;;;;;4979653;28;20459;-81
2023/03/06 04:31:30;;;;;;;19.27;14.07;;;5.60;99.90;;;;;;4984337;28;20814;-81
2023/03/06 04:34:13;;;;;;;21.13;14.50;;;5.60;99.90;;;;;;4978175;28;20457;-81
2023/03/06 04:36:51;;;;;;;20.77;13.23;;;5.50;99.90;;;;;;4969491;28;20487;-81
2023/03/06 04:40:18;;;;;;;21.83;14.47;;;5.60;99.90;;;;;;4960922;28;20445;-82
2023/03/06 04:43:03;;;;;;;18.10;13.77;;;5.60;99.90;;;;;;4959208;28;21184;-80
2023/03/06 04:45:59;;;;;;;24.43;14.37;;;5.60;99.90;;;;;;4966829;28;20464;-80
2023/03/06 04:48:47;;;;;;;21.70;14.40;;;5.60;99.90;;;;;;4968732;28;20467;-82
2023/03/06 04:51:35;;;;;;;20.00;13.43;;;5.60;99.90;;;;;;4965310;28;20705;-81
2023/03/06 04:54:22;;;;;;;22.73;14.70;;;5.60;99.90;;;;;;4970293;28;20471;-79
2023/03/06 04:57:13;;;;;;;24.33;14.20;;;5.60;99.90;;;;;;4966281;28;20514;-81
2023/03/06 05:00:29;;;;;;;21.50;14.93;;;5.60;99.90;;;;;;4965649;28;20581;-81
2023/03/06 05:03:27;;;;;;;19.60;13.30;;;5.50;99.90;;;;;;4969524;28;20464;-82
2023/03/06 05:06:12;;;;;;;21.87;14.90;;;5.60;99.90;;;;;;4965659;28;20475;-78
2023/03/06 05:08:47;;;;;;;23.30;14.90;;;5.60;99.90;;;;;;4967347;28;20466;-81
2023/03/06 05:11:19;;;;;;;22.93;15.40;;;5.70;99.90;;;;;;4986544;28;20459;-81
2023/03/06 05:13:53;;;;;;;21.20;14.57;;;5.60;99.90;;;;;;4967497;28;20555;-82
2023/03/06 05:16:43;;;;;;;24.70;16.73;;;5.60;99.90;;;;;;4967906;28;20567;-82
2023/03/06 05:19:22;;;;;;;21.73;15.20;;;5.50;99.90;;;;;;4994227;28;20467;-80
2023/03/06 05:22:06;;;;;;;22.50;15.17;;;5.60;99.90;;;;;;4971098;28;20470;-79
2023/03/06 05:25:20;;;;;;;22.40;14.83;;;5.50;99.90;;;;;;4986942;28;20488;-82
2023/03/06 05:28:13;;;;;;;21.13;14.60;;;5.60;99.90;;;;;;4970938;28;20523;-81
2023/03/06 05:30:59;;;;;;;23.77;16.30;;;5.50;99.90;;;;;;4966022;28;20551;-80
2023/03/06 05:33:38;;;;;;;24.57;15.23;;;5.50;99.90;;;;;;4964961;28;20453;-82
2023/03/06 05:36:26;;;;;;;23.37;16.60;;;5.50;99.90;;;;;;4983824;28;21223;-83
2023/03/06 05:39:14;;;;;;;24.00;15.77;;;5.50;99.90;;;;;;4924092;29;20473;-83
2023/03/06 05:42:27;;;;;;;;;;;;;;;;;;;;;
2023/03/06 05:45:03;;;;;;;24.00;16.63;;;5.50;99.90;;;;;;4978528;28;20492;-81
2023/03/06 05:48:36;;;;;;;26.10;16.17;;;5.50;99.90;;;;;;4965983;28;20456;-82
2023/03/06 05:51:33;;;;;;;23.90;15.40;;;5.50;99.90;;;;;;4959255;28;20506;-83
2023/03/06 05:54:14;;;;;;;23.47;14.37;;;5.50;99.90;;;;;;4981506;28;20462;-81
2023/03/06 05:56:48;;;;;;;29.17;16.47;;;5.50;99.90;;;;;;4972871;28;21039;-79
2023/03/06 06:00:13;;;;;;;;;;;;;;;;;;;;;
2023/03/06 06:03:29;;;;;;;22.03;14.20;;;5.50;99.90;;;;;;4923771;29;20479;-81
2023/03/06 06:06:39;;;;;;;;;;;;;;;;;;;;;
2023/03/06 06:10:13;;;;;;;20.77;14.97;;;5.50;99.90;;;;;;4912511;29;20479;-79
2023/03/06 06:13:14;;;;;;;23.80;15.47;;;5.50;99.90;;;;;;4921619;29;20530;-81
2023/03/06 06:16:21;;;;;;;23.50;16.93;;;5.50;99.90;;;;;;4924726;29;20527;-79
2023/03/06 06:19:24;;;;;;;27.53;16.10;;;5.50;99.90;;;;;;5887772;23;20770;-80
2023/03/06 06:22:23;;;;;;;26.23;16.10;;;5.50;99.90;;;;;;4943787;28;20491;-82
2023/03/06 06:30:54;;;;;;;25.30;15.93;;;5.40;99.90;;;;;;5012306;23;20504;-81
2023/03/06 06:34:12;;;;;;;;;;;;;;;;;;;;;
2023/03/06 06:37:05;;;;;;;26.83;17.40;;;5.30;99.90;;;;;;4911083;29;20487;-81
2023/03/06 06:40:13;;;;;;;;;;;;;;;;;;;;;
2023/03/06 06:46:23;;;;;;;26.20;16.67;;;5.40;99.90;;;;;;4900473;29;20537;-80
2023/03/06 06:49:48;;;;;;;26.00;15.90;;;5.40;99.90;;;;;;4908127;29;20451;-82
2023/03/06 06:52:32;;;;;;;26.07;16.17;;;5.40;99.90;;;;;;4875590;29;20531;-82
2023/03/06 06:55:42;;;;;;;22.20;15.03;;;5.40;99.90;;;;;;4900683;29;20455;-81
2023/03/06 06:58:52;;;;;;;25.57;15.47;;;5.50;99.90;;;;;;4914525;29;20592;-82
2023/03/06 07:05:05;;;;;;;;;;;;;;;;;;;;;
2023/03/06 07:08:05;;;;;;;25.77;15.60;;;5.50;99.90;;;;;;4984240;28;20468;-81
2023/03/06 07:10:58;;;;;;;22.73;14.97;;;5.50;99.90;;;;;;4970515;28;20452;-83
2023/03/06 07:13:56;;;;;;;25.43;16.20;;;5.50;99.90;;;;;;4969627;28;20440;-80
2023/03/06 07:16:57;;;;;;;24.77;15.67;;;5.50;99.90;;;;;;4963814;28;20488;-82
2023/03/06 07:20:30;;;;;;;26.13;17.10;;;5.50;99.90;;;;;;4969315;28;20535;-82
2023/03/06 07:27:18;;;;;;;26.47;15.93;;;5.50;99.90;;;;;;4921420;29;20494;-81
2023/03/06 07:30:01;;;;;;;27.13;15.73;;;5.50;99.90;;;;;;4864555;29;20493;-82
2023/03/06 07:32:48;;;;;;;22.23;14.57;;;5.60;99.90;;;;;;4879870;29;20452;-82
2023/03/06 07:38:58;;;;;;;21.57;16.17;;;5.60;99.90;;;;;;4874464;29;20449;-82
2023/03/06 07:42:28;;;;;;;26.10;15.23;;;5.60;99.90;;;;;;4875378;29;20459;-84
2023/03/06 07:45:29;;;;;;;24.37;14.60;;;5.60;99.90;;;;;;4853255;29;20457;-81
2023/03/06 07:48:57;;;;;;;22.70;14.70;;;5.60;99.90;;;;;;4889666;29;20516;-80
2023/03/06 07:51:56;;;;;;;27.77;16.87;;;5.60;99.90;;;;;;4927171;29;20450;-82
2023/03/06 07:54:34;;;;;;;23.87;14.73;;;5.60;99.90;;;;;;4922850;29;20455;-82
2023/03/06 07:57:35;;;;;;;23.87;16.53;;;5.60;99.90;;;;;;4898594;29;20570;-82
2023/03/06 08:00:52;;;;;;;24.93;15.50;;;5.60;99.90;;;;;;4899117;29;20446;-83
2023/03/06 08:04:11;;;;;;;27.00;16.43;;;5.70;99.90;;;;;;4913575;29;20826;-81
2023/03/06 08:07:20;;;;;;;24.37;15.23;;;5.70;99.90;;;;;;4928338;29;20444;-81
2023/03/06 08:10:28;;;;;;;31.00;17.43;;;5.70;99.90;;;;;;4889120;29;20475;-82
2023/03/06 08:13:48;;;;;;;25.57;16.00;;;5.70;99.90;;;;;;4873957;29;20490;-81
2023/03/06 08:17:03;;;;;;;25.00;15.63;;;5.80;99.90;;;;;;4900718;29;20620;-79
2023/03/06 08:20:17;;;;;;;27.80;17.80;;;5.70;99.90;;;;;;4873598;29;20452;-81
2023/03/06 08:23:15;;;;;;;26.50;16.80;;;5.70;99.90;;;;;;4878008;29;20456;-82
2023/03/06 08:26:20;;;;;;;26.50;16.13;;;5.60;99.90;;;;;;4890589;29;20478;-79
2023/03/06 08:32:52;;;;;;;27.40;17.53;;;5.70;99.90;;;;;;4892002;29;20477;-80
2023/03/06 08:35:58;;;;;;;26.13;16.60;;;5.80;99.90;;;;;;4931712;29;20962;-81
2023/03/06 08:38:51;;;;;;;25.00;16.23;;;6.00;99.90;;;;;;4978628;28;20488;-82
2023/03/06 08:41:43;;;;;;;28.93;17.93;;;6.00;99.90;;;;;;4947197;28;20448;-83
2023/03/06 08:44:45;;;;;;;26.87;18.00;;;6.10;99.90;;;;;;4971169;28;20492;-81
2023/03/06 08:47:41;;;;;;;32.07;17.93;;;6.20;99.90;;;;;;4962904;28;20495;-81
2023/03/06 08:50:50;;;;;;;25.30;16.50;;;6.20;99.90;;;;;;4956223;28;20810;-81
2023/03/06 08:53:46;;;;;;;23.90;15.30;;;6.20;99.90;;;;;;4988700;28;20462;-82
2023/03/06 08:56:47;;;;;;;22.67;14.90;;;6.20;99.90;;;;;;4966920;28;20570;-81
2023/03/06 09:00:23;;;;;;;;;;;;;;;;;;;;;
2023/03/06 09:03:32;;;;;;;20.33;11.97;;;6.10;99.90;;;;;;4985120;28;20447;-83
2023/03/06 09:06:50;;;;;;;20.23;13.03;;;6.10;99.90;;;;;;4978975;28;20485;-83
2023/03/06 09:10:22;;;;;;;18.90;12.40;;;6.10;99.50;;;;;;4872935;29;20969;-82
2023/03/06 09:17:30;;;;;;;;;;;;;;;;;;;;;
2023/03/06 09:24:22;;;;;;;18.53;12.80;;;6.00;98.90;;;;;;4878159;29;20481;-81
2023/03/06 09:31:21;;;;;;;18.53;12.30;;;6.20;99.00;;;;;;4975483;28;20507;-82
2023/03/06 09:37:52;;;;;;;19.13;11.73;;;6.30;98.70;;;;;;4969363;28;20503;-82
2023/03/06 09:41:25;;;;;;;;;;;;;;;;;;;;;
2023/03/06 09:48:39;;;;;;;19.07;12.00;;;6.60;97.90;;;;;;4988576;28;20911;-80
2023/03/06 09:52:23;;;;;;;19.53;13.20;;;6.60;97.60;;;;;;4972223;28;20517;-81
2023/03/06 09:55:10;;;;;;;19.73;12.53;;;6.60;97.60;;;;;;4970608;28;20831;-81
2023/03/06 09:58:37;;;;;;;21.43;12.37;;;6.60;97.70;;;;;;4968183;28;20480;-82
2023/03/06 10:01:51;;;;;;;24.97;13.47;;;6.60;97.50;;;;;;4992692;28;20459;-82
2023/03/06 10:04:45;;;;;;;24.23;14.30;;;6.50;97.20;;;;;;4917954;29;20467;-81
2023/03/06 10:08:07;;;;;;;22.67;14.50;;;6.40;97.30;;;;;;4980181;28;20500;-81
2023/03/06 10:11:18;;;;;;;19.60;13.27;;;6.40;97.60;;;;;;4968896;28;20508;-79
2023/03/06 10:14:47;;;;;;;19.40;13.23;;;6.50;98.10;;;;;;4972593;28;20455;-81
2023/03/06 10:17:55;;;;;;;22.47;13.43;;;6.80;98.10;;;;;;4978736;28;20479;-82
2023/03/06 10:21:20;;;;;;;19.23;13.07;;;6.80;98.00;;;;;;4963111;28;20429;-82
2023/03/06 10:24:27;;;;;;;21.90;15.23;;;6.90;97.70;;;;;;4947273;28;20475;-82
2023/03/06 10:27:36;;;;;;;25.63;17.17;;;6.90;97.50;;;;;;4941896;28;20481;-83
2023/03/06 10:31:02;;;;;;;18.53;13.57;;;7.00;97.30;;;;;;4920435;28;20573;-83
2023/03/06 10:34:20;;;;;;;16.97;11.83;;;7.10;97.00;;;;;;4934118;28;20487;-82
2023/03/06 10:36:55;;;;;;;21.17;11.10;;;7.00;96.50;;;;;;4940660;28;20476;-84
2023/03/06 10:39:31;;;;;;;18.40;12.03;;;7.00;96.00;;;;;;4936911;28;20622;-81
2023/03/06 10:42:27;;;;;;;17.37;11.47;;;6.90;95.80;;;;;;4939605;28;20494;-82
2023/03/06 10:45:21;;;;;;;15.03;11.63;;;6.90;96.00;;;;;;4955307;28;20452;-82
2023/03/06 10:51:53;;;;;;;;;;;;;;;;;;;;;
2023/03/06 10:57:39;;;;;;;21.20;12.10;;;6.90;96.00;;;;;;4963387;28;20475;-80
2023/03/06 11:00:31;;;;;;;15.23;10.57;;;6.90;96.00;;;;;;4954146;28;21165;-82
2023/03/06 11:03:38;;;;;;;15.73;11.30;;;6.90;96.00;;;;;;4955528;28;20468;-81
2023/03/06 11:06:33;;;;;;;13.60;10.80;;;6.90;95.60;;;;;;4913638;29;20520;-82
2023/03/06 11:09:28;;;;;;;15.37;11.97;;;6.80;95.70;;;;;;4913516;29;20473;-81
2023/03/06 11:12:34;;;;;;;16.80;10.50;;;6.80;96.00;;;;;;4948816;28;20834;-81
2023/03/06 11:15:16;;;;;;;18.10;11.50;;;6.80;96.50;;;;;;4936699;28;21013;-82
2023/03/06 11:18:16;;;;;;;16.27;10.87;;;6.80;96.70;;;;;;4951977;28;20548;-80
2023/03/06 11:21:01;;;;;;;17.90;11.97;;;6.80;96.80;;;;;;4920170;28;20982;-81
2023/03/06 11:27:05;;;;;;;16.83;11.73;;;6.70;97.00;;;;;;4934121;28;20479;-80
2023/03/06 11:29:52;;;;;;;22.20;12.93;;;6.70;96.90;;;;;;4934014;28;20460;-80
2023/03/06 11:32:52;;;;;;;21.50;13.17;;;6.60;97.10;;;;;;4935700;28;20474;-83
2023/03/06 11:35:50;;;;;;;20.30;13.47;;;6.70;97.60;;;;;;4928553;28;20476;-81
2023/03/06 11:38:45;;;;;;;21.60;13.00;;;6.70;97.80;;;;;;4929026;28;20467;-83
2023/03/06 11:41:52;;;;;;;23.23;14.00;;;6.70;98.20;;;;;;4924985;29;20568;-81
2023/03/06 11:45:00;;;;;;;21.87;12.73;;;6.80;98.60;;;;;;4924703;29;20680;-80
2023/03/06 11:48:06;;;;;;;18.53;12.70;;;6.80;98.40;;;;;;4936561;28;20553;-83
2023/03/06 11:51:35;;;;;;;18.03;10.60;;;6.80;97.90;;;;;;4919585;28;20472;-83
2023/03/06 11:54:17;;;;;;;13.33;10.10;;;6.70;97.80;;;;;;4926354;29;20490;-84
2023/03/06 11:57:14;;;;;;;17.47;12.00;;;6.80;98.00;;;;;;4937959;23;20504;-82
2023/03/06 12:00:21;;;;;;;17.77;10.33;;;6.70;97.90;;;;;;4904945;28;20583;-81
2023/03/06 12:03:23;;;;;;;17.23;11.47;;;6.60;97.90;;;;;;4942616;28;20460;-83
2023/03/06 12:06:02;;;;;;;18.37;10.77;;;6.70;97.90;;;;;;4907570;28;20453;-82
2023/03/06 12:09:21;;;;;;;17.00;10.70;;;6.70;98.00;;;;;;4938910;28;20525;-83
2023/03/06 12:12:20;;;;;;;14.80;9.90;;;6.70;98.20;;;;;;4924834;28;21023;-83
2023/03/06 12:15:14;;;;;;;14.90;10.20;;;6.60;98.20;;;;;;4930283;28;20456;-84
2023/03/06 12:18:06;;;;;;;19.60;11.73;;;6.70;98.50;;;;;;4945029;28;20501;-82
2023/03/06 12:20:53;;;;;;;15.17;10.07;;;6.70;98.50;;;;;;4936969;28;20717;-80
2023/03/06 12:23:44;;;;;;;13.17;10.00;;;6.80;98.70;;;;;;4948475;28;20456;-82
2023/03/06 12:26:44;;;;;;;13.90;9.50;;;6.90;98.30;;;;;;4963939;28;20559;-82
2023/03/06 12:29:51;;;;;;;14.30;9.20;;;6.90;98.00;;;;;;4946932;28;20460;-82
2023/03/06 12:32:55;;;;;;;13.40;9.93;;;6.90;97.60;;;;;;4935113;28;20463;-83
2023/03/06 12:35:36;;;;;;;14.57;9.70;;;7.00;97.50;;;;;;4938537;28;20441;-84
2023/03/06 12:38:49;;;;;;;18.10;11.50;;;7.00;97.60;;;;;;4936619;28;20488;-83
2023/03/06 12:41:41;;;;;;;14.57;9.70;;;7.00;97.50;;;;;;4960373;28;20536;-81
2023/03/06 12:44:26;;;;;;;16.53;10.57;;;7.00;97.60;;;;;;4951606;28;20452;-83
2023/03/06 12:47:12;;;;;;;15.97;9.53;;;7.00;97.30;;;;;;4946631;28;20556;-82
2023/03/06 12:50:04;;;;;;;13.60;9.40;;;7.00;96.90;;;;;;4958442;28;20475;-83
2023/03/06 12:52:45;;;;;;;14.87;8.90;;;6.90;96.70;;;;;;4934238;28;20475;-82
2023/03/06 12:55:19;;;;;;;14.20;9.40;;;6.90;96.70;;;;;;4946829;28;20541;-82
2023/03/06 12:57:54;;;;;;;10.90;8.40;;;6.90;96.80;;;;;;4923037;28;20480;-82
2023/03/06 13:00:34;;;;;;;12.77;8.77;;;6.90;96.70;;;;;;4933164;28;20586;-82
2023/03/06 13:03:29;;;;;;;11.27;7.73;;;6.90;96.40;;;;;;4927543;28;20481;-82
2023/03/06 13:06:20;;;;;;;13.40;8.70;;;6.90;96.20;;;;;;4919086;28;20485;-82
2023/03/06 13:09:20;;;;;;;10.90;7.60;;;6.80;96.20;;;;;;4937824;28;20914;-82
2023/03/06 13:12:24;;;;;;;10.40;7.30;;;6.90;96.50;;;;;;4939025;28;20453;-82
2023/03/06 13:14:59;;;;;;;11.40;7.40;;;7.00;96.10;;;;;;4921614;28;20456;-82
2023/03/06 13:17:40;;;;;;;10.63;6.90;;;7.00;95.70;;;;;;4926920;28;20506;-82
2023/03/06 13:20:13;;;;;;;11.20;7.30;;;7.00;95.20;;;;;;4925417;28;20456;-83
2023/03/06 13:22:49;;;;;;;11.77;8.30;;;7.10;95.30;;;;;;4925631;28;20461;-82
2023/03/06 13:25:18;;;;;;;11.63;6.43;;;7.10;95.30;;;;;;4923067;28;20473;-83
2023/03/06 13:27:51;;;;;;;9.27;6.70;;;7.10;95.30;;;;;;4935383;28;20511;-81
2023/03/06 13:30:38;;;;;;;11.40;7.13;;;7.10;95.00;;;;;;4919708;28;20466;-82
2023/03/06 13:33:35;;;;;;;10.73;6.70;;;7.10;94.80;;;;;;4920326;28;20477;-82
2023/03/06 13:36:25;;;;;;;9.30;6.43;;;7.00;94.50;;;;;;4938740;28;20483;-79
2023/03/06 13:39:10;;;;;;;10.30;5.83;;;7.10;94.30;;;;;;4942722;28;20486;-82
2023/03/06 13:42:06;;;;;;;12.87;7.57;;;7.00;94.30;;;;;;4933455;28;20507;-81
2023/03/06 13:44:40;;;;;;;12.50;7.53;;;7.10;94.60;;;;;;4915043;28;20464;-82
2023/03/06 13:47:33;;;;;;;11.30;7.43;;;7.20;94.80;;;;;;4940079;28;20485;-82
2023/03/06 13:50:40;;;;;;;10.20;7.30;;;7.10;94.60;;;;;;4927140;28;20470;-83
2023/03/06 13:53:46;;;;;;;12.23;7.90;;;7.10;94.60;;;;;;4934355;28;21095;-84
2023/03/06 13:56:57;;;;;;;11.57;7.90;;;7.10;94.70;;;;;;4936455;28;20498;-83
2023/03/06 14:00:53;;;;;;;14.60;8.03;;;7.10;94.80;;;;;;4904576;28;20556;-82
2023/03/06 14:04:02;;;;;;;11.90;8.43;;;7.10;95.00;;;;;;4937040;28;20589;-82
2023/03/06 14:06:34;;;;;;;12.07;7.70;;;7.40;95.80;;;;;;4939846;28;20479;-83
2023/03/06 14:09:31;;;;;;;14.37;9.17;;;7.70;96.10;;;;;;4932857;28;20493;-82
2023/03/06 14:12:18;;;;;;;11.47;7.87;;;7.60;96.00;;;;;;4935916;28;20454;-84
2023/03/06 14:14:58;;;;;;;16.17;9.47;;;8.00;95.80;;;;;;4937655;28;20449;-82
2023/03/06 14:17:36;;;;;;;14.57;9.70;;;8.20;95.30;;;;;;4941140;28;20492;-82
2023/03/06 14:20:17;;;;;;;18.63;11.50;;;8.00;95.30;;;;;;4933322;28;20468;-83
2023/03/06 14:23:15;;;;;;;14.00;11.17;;;7.90;96.20;;;;;;4954658;28;20468;-82
2023/03/06 14:25:47;;;;;;;12.97;9.70;;;7.70;96.70;;;;;;4949349;28;20544;-83
2023/03/06 14:28:25;;;;;;;18.37;11.43;;;7.90;97.30;;;;;;4952872;28;20512;-83
2023/03/06 14:31:00;;;;;;;14.40;10.13;;;7.80;97.10;;;;;;4936253;28;20502;-83
2023/03/06 14:33:41;;;;;;;13.00;8.80;;;7.60;97.00;;;;;;4946925;28;20493;-82
2023/03/06 14:36:19;;;;;;;13.93;9.97;;;7.40;96.80;;;;;;4932659;28;20470;-83
2023/03/06 14:39:03;;;;;;;10.90;9.10;;;7.30;97.10;;;;;;4948343;28;20473;-83
2023/03/06 14:41:42;;;;;;;13.80;10.30;;;7.30;96.60;;;;;;4943095;28;20753;-82
2023/03/06 14:44:18;;;;;;;12.80;8.67;;;7.20;96.40;;;;;;4940207;28;20449;-83
2023/03/06 14:47:10;;;;;;;14.40;10.03;;;7.20;96.50;;;;;;4944069;28;20540;-84
2023/03/06 14:49:43;;;;;;;16.30;9.73;;;7.30;96.70;;;;;;4953519;28;20457;-83
2023/03/06 14:52:17;;;;;;;11.63;8.33;;;7.20;96.60;;;;;;4950889;28;20441;-83
2023/03/06 14:54:52;;;;;;;12.40;8.07;;;7.20;96.50;;;;;;4946118;28;20932;-81
2023/03/06 14:57:23;;;;;;;10.93;8.47;;;7.20;96.30;;;;;;4942344;28;20477;-82
2023/03/06 15:00:07;;;;;;;14.27;8.47;;;7.10;95.80;;;;;;4942991;28;20478;-82
2023/03/06 15:02:37;;;;;;;13.27;9.07;;;7.10;95.60;;;;;;4938100;28;20459;-80
2023/03/06 15:05:21;;;;;;;11.53;9.07;;;7.10;95.60;;;;;;4953244;28;20446;-82
2023/03/06 15:08:01;;;;;;;12.10;8.90;;;7.10;95.70;;;;;;4938421;28;20485;-83
2023/03/06 15:10:37;;;;;;;15.10;9.20;;;7.10;95.80;;;;;;4926923;28;20541;-82
2023/03/06 15:13:23;;;;;;;15.37;8.80;;;7.20;95.80;;;;;;4945651;28;20464;-83
2023/03/06 15:15:58;;;;;;;11.93;8.47;;;7.10;95.70;;;;;;4943421;28;20469;-83
2023/03/06 15:18:35;;;;;;;13.63;9.30;;;7.10;95.60;;;;;;4946751;28;20496;-82
2023/03/06 15:21:18;;;;;;;13.00;9.50;;;7.30;95.60;;;;;;4929781;28;20505;-82
2023/03/06 15:23:52;;;;;;;12.63;9.93;;;7.30;95.70;;;;;;4943941;28;20445;-81
2023/03/06 15:26:38;;;;;;;13.60;9.67;;;7.20;95.60;;;;;;4927231;28;20491;-82
2023/03/06 15:29:08;;;;;;;15.90;10.90;;;7.20;95.70;;;;;;4927527;28;20467;-83
2023/03/06 15:31:43;;;;;;;12.33;9.23;;;7.20;95.60;;;;;;4939873;28;20544;-82
2023/03/06 15:34:22;;;;;;;13.03;8.87;;;7.20;95.60;;;;;;4932003;28;20465;-84
2023/03/06 15:36:59;;;;;;;12.27;9.30;;;7.20;95.70;;;;;;4943910;28;20484;-84
2023/03/06 15:39:36;;;;;;;13.37;9.93;;;7.30;95.80;;;;;;4947525;28;20484;-82
2023/03/06 15:42:23;;;;;;;12.30;9.90;;;7.30;95.90;;;;;;4926860;28;20468;-83
2023/03/06 15:44:59;;;;;;;12.97;8.90;;;7.40;95.90;;;;;;4919718;28;20956;-81
2023/03/06 15:47:44;;;;;;;12.03;8.80;;;7.30;95.70;;;;;;4929421;28;21723;-82
2023/03/06 15:50:42;;;;;;;11.30;8.07;;;7.40;95.90;;;;;;4931064;28;20459;-82
2023/03/06 15:53:14;;;;;;;11.60;8.30;;;7.30;95.60;;;;;;4919196;28;20461;-83
2023/03/06 15:55:57;;;;;;;13.20;9.27;;;7.40;95.40;;;;;;4940156;28;20529;-82
2023/03/06 15:58:39;;;;;;;14.63;10.30;;;7.30;95.40;;;;;;4924473;28;20556;-81
2023/03/06 16:01:35;;;;;;;14.00;9.90;;;7.30;95.80;;;;;;4940056;28;20461;-82
2023/03/06 16:04:21;;;;;;;14.50;10.43;;;7.80;95.70;;;;;;4904229;28;20559;-80
2023/03/06 16:06:57;;;;;;;13.03;10.00;;;7.60;95.20;;;;;;4930902;28;20484;-80
2023/03/06 16:09:35;;;;;;;14.70;10.50;;;7.40;95.60;;;;;;4935395;28;20461;-82
2023/03/06 16:12:28;;;;;;;13.60;9.37;;;7.60;96.00;;;;;;4927681;28;20457;-79
2023/03/06 16:15:04;;;;;;;18.30;10.57;;;7.50;95.80;;;;;;4937153;28;20446;-80
2023/03/06 16:17:37;;;;;;;19.03;10.80;;;7.60;95.60;;;;;;4935258;28;20480;-82
2023/03/06 16:20:21;;;;;;;14.73;10.47;;;7.50;95.60;;;;;;4941064;28;20480;-82
2023/03/06 16:23:00;;;;;;;20.43;11.13;;;7.60;95.60;;;;;;4948124;28;20457;-80
2023/03/06 16:25:32;;;;;;;15.90;10.50;;;7.50;95.70;;;;;;4931246;28;20465;-81
2023/03/06 16:28:04;;;;;;;16.90;10.53;;;7.30;96.10;;;;;;4943546;28;20516;-81
2023/03/06 16:30:48;;;;;;;15.50;10.30;;;7.30;96.30;;;;;;4934910;28;20479;-82
2023/03/06 16:33:34;;;;;;;16.00;10.70;;;7.50;95.90;;;;;;4931018;28;20457;-84